createdAt,value
2022-12-19T00:01:37.964Z,88.23
2022-12-19T00:04:08.657Z,88.80
2022-12-19T00:06:38.105Z,88.57
2022-12-19T00:09:10.359Z,89.49
2022-12-19T00:11:38.846Z,90.40
2022-12-19T00:14:06.478Z,91.56
2022-12-19T00:16:33.375Z,91.47
2022-12-19T00:19:01.798Z,92.63
2022-12-19T00:21:31.104Z,92.22
2022-12-19T00:24:03.241Z,92.59
2022-12-19T00:26:34.382Z,91.88
2022-12-19T00:29:11.181Z,91.86
2022-12-19T00:31:40.738Z,92.55
2022-12-19T00:34:07.423Z,93.05
2022-12-19T00:36:34.712Z,94.00
2022-12-19T00:39:02.457Z,94.05
2022-12-19T00:41:36.764Z,92.96
2022-12-19T00:44:06.239Z,93.56
2022-12-19T00:46:35.313Z,92.59
2022-12-19T00:49:02.419Z,90.65
2022-12-19T00:51:31.273Z,90.69
2022-12-19T00:53:58.970Z,90.56
2022-12-19T00:56:33.439Z,91.02
2022-12-19T00:59:03.969Z,90.90
2022-12-19T01:01:34.326Z,89.93
2022-12-19T01:06:49.985Z,86.46
2022-12-19T01:09:17.702Z,84.94
2022-12-19T01:12:02.890Z,84.46
2022-12-19T01:14:29.587Z,83.16
2022-12-19T01:16:56.138Z,84.42
2022-12-19T01:19:22.880Z,82.01
2022-12-19T01:21:49.693Z,84.27
2022-12-19T01:24:19.039Z,83.99
2022-12-19T01:26:46.275Z,85.20
2022-12-19T01:29:13.053Z,85.71
2022-12-19T01:31:39.803Z,86.02
2022-12-19T01:34:06.628Z,85.09
2022-12-19T01:36:34.959Z,85.30
2022-12-19T01:39:06.717Z,87.29
2022-12-19T01:41:33.383Z,85.93
2022-12-19T01:44:01.435Z,83.91
2022-12-19T01:46:42.557Z,81.94
2022-12-19T01:49:35.397Z,82.85
2022-12-19T01:52:10.653Z,81.56
2022-12-19T01:54:41.682Z,81.27
2022-12-19T01:57:12.871Z,80.14
2022-12-19T01:59:46.053Z,81.03
2022-12-19T02:02:23.622Z,81.70
2022-12-19T02:04:50.315Z,81.30
2022-12-19T02:07:18.834Z,81.79
2022-12-19T02:09:47.167Z,81.06
2022-12-19T02:12:17.832Z,81.96
2022-12-19T02:14:44.509Z,81.86
2022-12-19T02:17:35.643Z,81.31
2022-12-19T02:20:30.176Z,81.12
2022-12-19T02:23:34.574Z,81.68
2022-12-19T02:26:10.387Z,82.55
2022-12-19T02:29:00.805Z,83.92
2022-12-19T02:31:49.437Z,84.45
2022-12-19T02:34:18.982Z,82.31
2022-12-19T02:37:09.644Z,82.73
2022-12-19T02:39:47.342Z,82.95
2022-12-19T02:42:22.595Z,83.53
2022-12-19T02:44:52.905Z,81.89
2022-12-19T02:47:22.005Z,81.63
2022-12-19T02:49:49.355Z,82.79
2022-12-19T02:52:18.904Z,80.56
2022-12-19T02:54:47.891Z,81.47
2022-12-19T02:57:28.346Z,82.21
2022-12-19T02:59:58.028Z,81.37
2022-12-19T03:03:00.807Z,80.47
2022-12-19T03:05:34.005Z,81.50
2022-12-19T03:08:25.698Z,82.23
2022-12-19T03:11:02.213Z,83.70
2022-12-19T03:13:41.265Z,85.66
2022-12-19T03:16:10.991Z,87.04
2022-12-19T03:18:38.256Z,88.26
2022-12-19T03:21:11.036Z,91.15
2022-12-19T03:23:38.507Z,91.86
2022-12-19T03:26:19.217Z,92.10
2022-12-19T03:28:53.882Z,93.42
2022-12-19T03:31:24.965Z,94.33
2022-12-19T03:33:56.487Z,94.76
2022-12-19T03:36:29.181Z,94.49
2022-12-19T03:38:57.244Z,94.93
2022-12-19T03:41:45.169Z,95.43
2022-12-19T03:44:15.861Z,94.54
2022-12-19T03:46:49.979Z,94.91
2022-12-19T03:49:16.845Z,94.56
2022-12-19T03:51:59.180Z,93.60
2022-12-19T03:54:29.999Z,94.33
2022-12-19T03:57:30.003Z,94.56
2022-12-19T04:00:09.240Z,92.67
2022-12-19T04:02:39.722Z,92.74
2022-12-19T04:05:10.083Z,91.62
2022-12-19T04:07:40.535Z,91.42
2022-12-19T04:10:11.555Z,91.04
2022-12-19T04:12:47.811Z,90.69
2022-12-19T04:15:15.251Z,91.10
2022-12-19T04:17:55.492Z,91.79
2022-12-19T04:20:25.760Z,92.40
2022-12-19T04:23:09.265Z,92.60
2022-12-19T04:25:40.192Z,92.34
2022-12-19T04:28:13.641Z,93.14
2022-12-19T04:30:43.150Z,92.20
2022-12-19T04:33:09.974Z,93.79
2022-12-19T04:35:37.217Z,92.61
2022-12-19T04:38:04.478Z,93.63
2022-12-19T04:40:33.589Z,93.17
2022-12-19T04:43:03.164Z,92.94
2022-12-19T04:45:30.661Z,93.66
2022-12-19T04:47:57.721Z,93.11
2022-12-19T04:50:24.445Z,92.54
2022-12-19T04:52:55.631Z,92.71
2022-12-19T04:55:23.933Z,93.96
2022-12-19T04:57:50.497Z,93.52
2022-12-19T05:00:17.383Z,93.57
2022-12-19T05:02:45.811Z,93.75
2022-12-19T05:05:12.541Z,94.18
2022-12-19T05:07:40.691Z,94.42
2022-12-19T05:10:08.251Z,95.41
2022-12-19T05:12:35.202Z,94.19
2022-12-19T05:15:02.026Z,93.72
2022-12-19T05:17:28.715Z,92.76
2022-12-19T05:19:55.351Z,92.41
2022-12-19T05:22:22.098Z,91.82
2022-12-19T05:24:48.784Z,91.45
2022-12-19T05:27:15.333Z,91.49
2022-12-19T05:29:41.969Z,91.22
2022-12-19T05:32:08.716Z,89.48
2022-12-19T05:34:35.404Z,89.28
2022-12-19T05:37:03.674Z,88.78
2022-12-19T05:39:30.759Z,88.21
2022-12-19T05:41:57.514Z,88.53
2022-12-19T05:44:24.853Z,88.31
2022-12-19T05:46:51.997Z,88.31
2022-12-19T05:49:18.828Z,88.87
2022-12-19T05:51:45.466Z,89.03
2022-12-19T05:54:12.077Z,88.87
2022-12-19T05:56:38.733Z,88.52
2022-12-19T05:59:05.496Z,87.96
2022-12-19T06:01:32.733Z,88.50
2022-12-19T06:03:59.444Z,87.55
2022-12-19T06:06:27.241Z,87.04
2022-12-19T06:08:55.510Z,87.07
2022-12-19T06:11:22.872Z,86.63
2022-12-19T06:13:49.618Z,87.11
2022-12-19T06:16:18.653Z,87.44
2022-12-19T06:18:46.344Z,87.99
2022-12-19T06:21:15.906Z,87.19
2022-12-19T06:23:43.678Z,88.17
2022-12-19T06:26:17.101Z,86.98
2022-12-19T06:28:46.593Z,86.87
2022-12-19T06:31:13.589Z,86.34
2022-12-19T06:33:40.380Z,86.73
2022-12-19T06:36:08.671Z,85.64
2022-12-19T06:38:35.511Z,84.23
2022-12-19T06:41:22.269Z,84.36
2022-12-19T06:43:53.337Z,84.58
2022-12-19T06:46:20.734Z,83.41
2022-12-19T06:48:48.073Z,82.47
2022-12-19T06:51:14.907Z,82.70
2022-12-19T06:53:41.716Z,83.73
2022-12-19T06:56:08.668Z,84.41
2022-12-19T06:58:35.592Z,85.50
2022-12-19T07:01:02.419Z,87.64
2022-12-19T07:03:40.992Z,89.64
2022-12-19T07:06:08.191Z,90.93
2022-12-19T07:08:34.833Z,93.65
2022-12-19T07:11:01.522Z,93.15
2022-12-19T07:13:28.149Z,94.37
2022-12-19T07:16:01.614Z,95.85
2022-12-19T07:18:32.120Z,96.24
2022-12-19T07:20:58.773Z,96.70
2022-12-19T07:23:25.525Z,96.42
2022-12-19T07:25:52.377Z,98.24
2022-12-19T07:28:19.406Z,98.42
2022-12-19T07:30:45.944Z,99.20
2022-12-19T07:33:16.975Z,99.97
2022-12-19T07:35:46.453Z,100.00
2022-12-19T07:38:12.995Z,100.00
2022-12-19T07:40:39.703Z,99.73
2022-12-19T07:43:07.016Z,99.92
2022-12-19T07:45:34.690Z,99.29
2022-12-19T07:48:02.899Z,98.64
2022-12-19T07:50:30.300Z,98.00
2022-12-19T07:52:58.410Z,97.44
2022-12-19T07:55:25.871Z,97.00
2022-12-19T07:57:53.781Z,97.18
2022-12-19T08:00:20.570Z,97.23
2022-12-19T08:02:48.128Z,98.43
2022-12-19T08:05:15.027Z,98.35
2022-12-19T08:07:41.710Z,99.05
2022-12-19T08:10:09.363Z,99.95
2022-12-19T08:12:36.048Z,100.00
2022-12-19T08:15:02.743Z,100.00
2022-12-19T08:17:29.401Z,100.00
2022-12-19T08:19:56.024Z,100.00
2022-12-19T08:22:23.160Z,100.00
2022-12-19T08:24:49.790Z,100.00
2022-12-19T08:27:17.860Z,100.00
2022-12-19T08:29:44.827Z,100.00
2022-12-19T08:32:14.445Z,100.00
2022-12-19T08:34:43.738Z,100.00
2022-12-19T08:37:11.326Z,100.00
2022-12-19T08:39:38.032Z,100.00
2022-12-19T08:42:04.754Z,100.00
2022-12-19T08:44:31.414Z,100.00
2022-12-19T08:46:58.227Z,100.00
2022-12-19T08:49:24.864Z,100.00
2022-12-19T08:51:52.120Z,100.00
2022-12-19T08:54:18.909Z,100.00
2022-12-19T08:56:46.926Z,100.00
2022-12-19T08:59:21.269Z,100.00
2022-12-19T09:01:58.415Z,100.00
2022-12-19T09:05:15.379Z,100.00
2022-12-19T09:07:15.216Z,100.00
2022-12-19T09:09:43.011Z,100.00
2022-12-19T09:12:09.682Z,100.00
2022-12-19T09:14:36.770Z,100.00
2022-12-19T09:17:04.757Z,100.00
2022-12-19T09:19:32.147Z,100.00
2022-12-19T09:21:59.355Z,100.00
2022-12-19T09:24:26.718Z,100.00
2022-12-19T09:26:53.595Z,100.00
2022-12-19T09:29:22.092Z,100.00
2022-12-19T09:31:56.272Z,100.00
2022-12-19T09:34:36.212Z,100.00
2022-12-19T09:37:08.738Z,100.00
2022-12-19T09:39:36.468Z,100.00
2022-12-19T09:42:27.806Z,100.00
2022-12-19T09:45:01.593Z,100.00
2022-12-19T09:47:31.376Z,100.00
2022-12-19T09:49:59.799Z,100.00
2022-12-19T09:52:41.255Z,100.00
2022-12-19T09:55:25.481Z,100.00
2022-12-19T09:58:01.957Z,100.00
2022-12-19T10:00:59.603Z,100.00
2022-12-19T10:03:40.761Z,100.00
2022-12-19T10:07:12.404Z,100.00
2022-12-19T10:11:18.169Z,100.00
2022-12-19T10:12:47.742Z,100.00
2022-12-19T10:15:47.267Z,100.00
2022-12-19T10:18:31.225Z,100.00
2022-12-19T10:21:05.645Z,100.00
2022-12-19T10:23:52.175Z,100.00
2022-12-19T10:26:46.750Z,100.00
2022-12-19T10:29:48.595Z,100.00
2022-12-19T10:32:34.619Z,100.00
2022-12-19T10:35:01.815Z,100.00
2022-12-19T10:37:47.436Z,100.00
2022-12-19T10:40:35.059Z,100.00
2022-12-19T10:43:33.691Z,100.00
2022-12-19T10:46:11.600Z,100.00
2022-12-19T10:48:38.312Z,100.00
2022-12-19T10:51:06.723Z,100.00
2022-12-19T10:53:34.274Z,100.00
2022-12-19T10:56:26.649Z,100.00
2022-12-19T10:59:01.605Z,100.00
2022-12-19T11:01:33.671Z,100.00
2022-12-19T11:04:29.773Z,100.00
2022-12-19T11:07:02.469Z,100.00
2022-12-19T11:09:31.730Z,100.00
2022-12-19T11:13:20.387Z,100.00
2022-12-19T11:18:53.136Z,100.00
2022-12-19T11:26:35.137Z,100.00
2022-12-19T11:29:19.441Z,100.00
2022-12-19T11:29:54.648Z,100.00
2022-12-19T11:30:37.383Z,100.00
2022-12-19T11:32:45.456Z,100.00
2022-12-19T11:35:15.456Z,100.00
2022-12-19T11:37:55.548Z,100.00
2022-12-19T11:40:53.178Z,100.00
2022-12-19T11:43:45.794Z,100.00
2022-12-19T11:46:26.531Z,100.00
2022-12-19T11:49:06.307Z,100.00
2022-12-19T11:51:32.982Z,100.00
2022-12-19T11:54:24.596Z,100.00
2022-12-19T11:56:51.311Z,100.00
2022-12-19T11:59:22.339Z,100.00
2022-12-19T12:02:02.610Z,100.00
2022-12-19T12:04:45.623Z,100.00
2022-12-19T12:07:33.353Z,100.00
2022-12-19T12:14:39.776Z,100.00
2022-12-19T12:19:45.843Z,100.00
2022-12-19T12:28:25.572Z,100.00
2022-12-19T12:31:15.118Z,100.00
2022-12-19T12:31:18.281Z,100.00
2022-12-19T12:31:26.457Z,100.00
2022-12-19T12:31:58.266Z,100.00
2022-12-19T12:35:33.627Z,100.00
2022-12-19T12:41:07.083Z,100.00
2022-12-19T12:43:45.704Z,100.00
2022-12-19T12:46:27.498Z,100.00
2022-12-19T12:49:00.586Z,100.00
2022-12-19T12:51:27.903Z,100.00
2022-12-19T12:54:03.552Z,100.00
2022-12-19T12:56:30.791Z,100.00
2022-12-19T12:58:57.360Z,100.00
2022-12-19T13:01:29.795Z,100.00
2022-12-19T13:04:06.896Z,100.00
2022-12-19T13:06:37.494Z,100.00
2022-12-19T13:09:10.220Z,100.00
2022-12-19T13:12:13.719Z,100.00
2022-12-19T13:14:42.476Z,100.00
2022-12-19T13:17:35.195Z,100.00
2022-12-19T13:20:04.814Z,100.00
2022-12-19T13:22:32.020Z,100.00
2022-12-19T13:25:00.536Z,100.00
2022-12-19T13:27:27.124Z,100.00
2022-12-19T13:29:56.878Z,100.00
2022-12-19T13:32:24.003Z,100.00
2022-12-19T13:35:06.948Z,100.00
2022-12-19T13:39:55.538Z,100.00
2022-12-19T13:41:23.062Z,100.00
2022-12-19T13:43:50.048Z,100.00
2022-12-19T13:46:42.686Z,100.00
2022-12-19T13:49:26.222Z,100.00
2022-12-19T13:51:58.815Z,100.00
2022-12-19T13:54:37.006Z,100.00
2022-12-19T13:57:22.214Z,100.00
2022-12-19T13:59:59.768Z,100.00
2022-12-19T14:02:45.269Z,100.00
2022-12-19T14:06:16.940Z,100.00
2022-12-19T14:08:29.031Z,100.00
2022-12-19T14:11:38.481Z,100.00
2022-12-19T14:14:20.611Z,100.00
2022-12-19T14:16:52.606Z,100.00
2022-12-19T14:19:20.405Z,100.00
2022-12-19T14:22:04.369Z,100.00
2022-12-19T14:24:34.176Z,100.00
2022-12-19T14:28:20.907Z,100.00
2022-12-19T14:30:31.107Z,100.00
2022-12-19T14:33:45.424Z,100.00
2022-12-19T14:36:10.134Z,100.00
2022-12-19T14:39:24.342Z,100.00
2022-12-19T14:41:55.991Z,100.00
2022-12-19T14:53:08.439Z,100.00
2022-12-19T14:54:02.055Z,100.00
2022-12-19T14:54:22.390Z,100.00
2022-12-19T14:54:47.717Z,100.00
2022-12-19T14:56:30.999Z,100.00
2022-12-19T14:58:59.836Z,100.00
2022-12-19T15:01:29.578Z,100.00
2022-12-19T15:04:52.890Z,100.00
2022-12-19T15:07:07.384Z,100.00
2022-12-19T15:11:09.504Z,100.00
2022-12-19T15:14:51.841Z,100.00
2022-12-19T15:16:05.118Z,100.00
2022-12-19T15:18:42.874Z,100.00
2022-12-19T15:21:14.728Z,100.00
2022-12-19T15:23:43.722Z,100.00
2022-12-19T15:26:16.485Z,100.00
2022-12-19T15:28:47.663Z,100.00
2022-12-19T15:31:30.013Z,100.00
2022-12-19T15:34:32.899Z,100.00
2022-12-19T15:36:43.832Z,100.00
2022-12-19T15:39:10.551Z,100.00
2022-12-19T15:41:37.222Z,100.00
2022-12-19T15:44:15.797Z,100.00
2022-12-19T15:46:48.384Z,100.00
2022-12-19T15:49:18.056Z,100.00
2022-12-19T15:51:45.075Z,100.00
2022-12-19T15:56:58.335Z,100.00
2022-12-19T15:59:38.944Z,100.00
2022-12-19T16:02:17.533Z,100.00
2022-12-19T16:04:46.522Z,100.00
2022-12-19T16:07:22.219Z,100.00
2022-12-19T16:09:49.815Z,100.00
2022-12-19T16:12:23.345Z,100.00
2022-12-19T16:14:56.975Z,100.00
2022-12-19T16:17:25.307Z,100.00
2022-12-19T16:19:52.198Z,100.00
2022-12-19T16:22:22.608Z,100.00
2022-12-19T16:24:50.674Z,100.00
2022-12-19T16:27:29.795Z,100.00
2022-12-19T16:30:02.885Z,100.00
2022-12-19T16:32:29.463Z,100.00
2022-12-19T16:34:56.156Z,100.00
2022-12-19T16:37:27.197Z,100.00
2022-12-19T16:39:56.941Z,100.00
2022-12-19T16:42:23.624Z,100.00
2022-12-19T16:44:50.335Z,100.00
2022-12-19T16:47:18.131Z,100.00
2022-12-19T16:49:45.246Z,100.00
2022-12-19T16:52:12.460Z,100.00
2022-12-19T16:54:39.255Z,100.00
2022-12-19T16:57:15.009Z,99.63
2022-12-19T16:59:41.969Z,100.00
2022-12-19T17:02:26.882Z,100.00
2022-12-19T17:04:54.279Z,99.97
2022-12-19T17:07:21.021Z,99.46
2022-12-19T17:09:47.686Z,99.76
2022-12-19T17:12:18.036Z,99.70
2022-12-19T17:14:44.987Z,99.99
2022-12-19T17:17:15.769Z,98.34
2022-12-19T17:19:45.455Z,98.49
2022-12-19T17:22:15.101Z,97.55
2022-12-19T17:24:42.271Z,96.03
2022-12-19T17:27:08.838Z,96.22
2022-12-19T17:29:35.467Z,95.58
2022-12-19T17:32:02.386Z,95.78
2022-12-19T17:34:32.033Z,94.56
2022-12-19T17:37:00.723Z,94.51
2022-12-19T17:39:29.985Z,93.54
2022-12-19T17:42:01.547Z,93.13
2022-12-19T17:44:28.113Z,92.59
2022-12-19T17:46:54.832Z,92.05
2022-12-19T17:49:29.329Z,92.47
2022-12-19T17:51:57.065Z,93.01
2022-12-19T17:54:23.744Z,93.29
2022-12-19T17:56:50.742Z,93.38
2022-12-19T17:59:17.720Z,93.44
2022-12-19T18:01:47.323Z,93.36
2022-12-19T18:04:16.607Z,93.20
2022-12-19T18:06:43.571Z,93.03
2022-12-19T18:09:24.621Z,92.92
2022-12-19T18:11:52.990Z,93.02
2022-12-19T18:14:19.780Z,93.19
2022-12-19T18:16:47.078Z,92.82
2022-12-19T18:19:19.912Z,92.84
2022-12-19T18:21:46.973Z,93.43
2022-12-19T18:24:16.523Z,93.15
2022-12-19T18:26:44.596Z,93.71
2022-12-19T18:29:11.874Z,93.31
2022-12-19T18:31:42.524Z,92.57
2022-12-19T18:34:26.383Z,93.45
2022-12-19T18:36:53.704Z,93.29
2022-12-19T18:39:25.538Z,92.78
2022-12-19T18:41:53.208Z,92.33
2022-12-19T18:44:20.691Z,93.08
2022-12-19T18:46:49.824Z,92.35
2022-12-19T18:49:17.723Z,92.34
2022-12-19T18:51:45.260Z,92.56
2022-12-19T18:54:14.102Z,92.65
2022-12-19T18:56:40.796Z,93.67
2022-12-19T18:59:07.289Z,94.01
2022-12-19T19:01:43.571Z,93.44
2022-12-19T19:04:13.258Z,93.01
2022-12-19T19:06:46.746Z,92.26
2022-12-19T19:09:18.203Z,92.36
2022-12-19T19:11:45.207Z,91.70
2022-12-19T19:14:12.483Z,92.08
2022-12-19T19:16:40.313Z,91.88
2022-12-19T19:19:10.270Z,91.03
2022-12-19T19:21:37.559Z,91.47
2022-12-19T19:24:18.104Z,91.16
2022-12-19T19:26:44.976Z,91.33
2022-12-19T19:29:13.858Z,91.46
2022-12-19T19:31:46.125Z,91.69
2022-12-19T19:34:18.501Z,90.34
2022-12-19T19:36:49.659Z,90.95
2022-12-19T19:39:17.183Z,91.09
2022-12-19T19:41:43.755Z,91.07
2022-12-19T19:44:10.371Z,91.34
2022-12-19T19:46:37.631Z,90.85
2022-12-19T19:49:04.449Z,91.25
2022-12-19T19:51:31.142Z,91.36
2022-12-19T19:53:57.900Z,91.50
2022-12-19T19:56:24.533Z,92.40
2022-12-19T19:58:51.137Z,93.40
2022-12-19T20:01:17.783Z,93.02
2022-12-19T20:03:45.183Z,93.08
2022-12-19T20:06:12.616Z,93.60
2022-12-19T20:08:40.530Z,94.63
2022-12-19T20:11:09.029Z,94.13
2022-12-19T20:13:36.016Z,94.25
2022-12-19T20:16:07.576Z,94.05
2022-12-19T20:18:35.377Z,94.12
2022-12-19T20:21:03.865Z,93.99
2022-12-19T20:23:33.257Z,94.03
2022-12-19T20:26:04.939Z,94.46
2022-12-19T20:28:32.294Z,94.20
2022-12-19T20:30:59.689Z,94.16
2022-12-19T20:33:26.988Z,94.38
2022-12-19T20:35:57.759Z,94.12
2022-12-19T20:38:25.175Z,96.71
2022-12-19T20:40:55.772Z,98.33
2022-12-19T20:43:23.994Z,99.39
2022-12-19T20:45:51.153Z,100.00
2022-12-19T20:48:18.691Z,99.52
2022-12-19T20:50:45.313Z,99.19
2022-12-19T20:53:11.887Z,98.02
2022-12-19T20:55:38.531Z,98.53
2022-12-19T20:58:05.213Z,99.09
2022-12-19T21:00:31.902Z,99.53
2022-12-19T21:05:52.585Z,100.00
2022-12-19T21:08:19.463Z,100.00
2022-12-19T21:10:46.055Z,100.00
2022-12-19T21:13:12.623Z,100.00
2022-12-19T21:15:39.273Z,100.00
2022-12-19T21:18:06.072Z,100.00
2022-12-19T21:20:38.262Z,100.00
2022-12-19T21:23:05.431Z,100.00
2022-12-19T21:25:32.167Z,100.00
2022-12-19T21:27:58.906Z,100.00
2022-12-19T21:30:25.612Z,100.00
2022-12-19T21:32:52.387Z,100.00
2022-12-19T21:35:19.078Z,100.00
2022-12-19T21:37:50.242Z,100.00
2022-12-19T21:40:20.460Z,100.00
2022-12-19T21:42:47.183Z,100.00
2022-12-19T21:45:14.790Z,100.00
2022-12-19T21:47:42.249Z,100.00
2022-12-19T21:50:12.024Z,100.00
2022-12-19T21:52:39.376Z,100.00
2022-12-19T21:55:07.783Z,100.00
2022-12-19T21:57:41.810Z,100.00
2022-12-19T22:00:11.268Z,100.00
2022-12-19T22:02:38.906Z,100.00
2022-12-19T22:05:06.826Z,100.00
2022-12-19T22:07:33.885Z,100.00
2022-12-19T22:10:00.977Z,100.00
2022-12-19T22:12:27.583Z,100.00
2022-12-19T22:14:54.213Z,100.00
2022-12-19T22:17:20.783Z,100.00
2022-12-19T22:19:47.485Z,100.00
2022-12-19T22:22:14.086Z,100.00
2022-12-19T22:24:40.726Z,100.00
2022-12-19T22:27:07.331Z,100.00
2022-12-19T22:29:36.635Z,100.00
2022-12-19T22:32:04.754Z,100.00
2022-12-19T22:34:31.704Z,100.00
2022-12-19T22:36:58.279Z,100.00
2022-12-19T22:39:25.037Z,100.00
2022-12-19T22:41:51.808Z,100.00
2022-12-19T22:44:23.900Z,100.00
2022-12-19T22:46:51.844Z,100.00
2022-12-19T22:49:18.890Z,100.00
2022-12-19T22:51:45.706Z,100.00
2022-12-19T22:54:13.739Z,100.00
2022-12-19T22:56:40.551Z,100.00
2022-12-19T22:59:08.671Z,100.00
2022-12-19T23:01:38.506Z,100.00
2022-12-19T23:04:06.631Z,100.00
2022-12-19T23:06:35.195Z,100.00
2022-12-19T23:09:02.059Z,100.00
2022-12-19T23:11:32.273Z,100.00
2022-12-19T23:14:00.435Z,100.00
2022-12-19T23:16:27.207Z,100.00
2022-12-19T23:18:53.830Z,100.00
2022-12-19T23:21:23.108Z,100.00
2022-12-19T23:23:52.117Z,100.00
2022-12-19T23:26:30.912Z,100.00
2022-12-19T23:29:03.575Z,100.00
2022-12-19T23:31:30.792Z,100.00
2022-12-19T23:33:58.382Z,100.00
2022-12-19T23:37:09.068Z,100.00
2022-12-19T23:39:13.425Z,100.00
2022-12-19T23:41:40.612Z,100.00
2022-12-19T23:44:08.801Z,100.00
2022-12-19T23:46:35.940Z,100.00
2022-12-19T23:49:02.924Z,100.00
2022-12-19T23:51:30.289Z,100.00
2022-12-19T23:53:57.109Z,100.00
2022-12-19T23:56:26.705Z,100.00
2022-12-19T23:58:53.961Z,100.00
